Terminal Aerodrome Forecast
Issued by NWS Brownsville, TX

Home | Current Version | Previous Version | Text Only | Print | Product List | Glossary On
Versions: 1 2 3 4 5 6 7 8 9 10 11 12 13 14 15
310
FTUS44 KBRO 122322
TAFBRO
TAF
KBRO 122322Z 1300/1324 16013G19KT P6SM FEW050
     FM130200 VRB03KT P6SM FEW250
      TEMPO 1310/1313 4SM BR=

USA.gov is the U.S. government's official web portal to all federal, state and local government web resources and services.